Truckee Tahoe Airport
KTRK : now visible

Airfield :











YOU CAN JOIN US ON...

 
LOGIN :

Register | Disclaimer

   EN    FR    IT 

 









Legend :    VFR   Marginal VFR   IFR   Intensive IFR   Very Intensive IFR
Visi :
Ceiling :
>= 8 km
>= 3000ft
5 to 8 km
1000 to 3000 ft
1500m to 5 km
500 to 1000 ft
800 to 1500m
200 to 500 ft
< 800m
< 200 ft
Symbols :   Thunderstorms  Fog  Heavy snow  Heavy precipitations  Wind > 20 kt






- Airport Elevation : 5900 ft


KTRK - Truckee Tahoe

CURRENT METAR :
  • 271318Z AUTO 20005KT 10SM CLR 11/M10 A3015 RMK AO2

EXPIRED METARs :
  • 271258Z AUTO 23004KT 10SM CLR 09/M12 A3015 RMK AO2
  • 271238Z AUTO 00000KT 10SM CLR 07/M11 A3015 RMK AO2 LTG DSNT NW
  • 271218Z AUTO 00000KT 10SM CLR 08/M12 A3015 RMK AO2
  • 271158Z AUTO 00000KT 10SM CLR 09/M12 A3016 RMK AO2 LTG DSNT NW
  • 271138Z AUTO 31003KT 10SM CLR 09/M11 A3016 RMK AO2
  • 271118Z AUTO 01003KT 10SM CLR 09/M11 A3016 RMK AO2
  • 271058Z AUTO 00000KT 10SM CLR 07/M12 A3017 RMK AO2
  • 271038Z AUTO 00000KT 10SM CLR 07/M12 A3017 RMK AO2

TAF KTRK
Valid from the 27 at 12:00 until the 28 at 12:00 UTC


271140Z 2712/2812 20005KT P6SM SKC WS020/23035KT
FM271800 23015G27KT P6SM FEW100
FM272100 23015G35KT P6SM FEW100 SCT250
FM280900 21011G20KT P6SM SCT080 BKN120
PROB30 2811/2812 4SM -SHRA BKN030
KZOA FIR / North America



MET'MAP, your aeronautical weather chart ! - Copyright ORBIFLY December 2007 - Disclaimer

ORBIFLY MET'MAP TEAM :

Programming & Development : Alexandra Zaïnal
Concept & original design : Baudouin d'Aumeries
Assistance for programming : Marc-Olivier Méhu
Technical & hardware support : Manuel Goepfert

Contact : metmap@orbifly.com




SOURCES & CREDITS :

   NOAA       Earth
Advisory